sensor_id;sensor_type;location;lat;lon;timestamp;pressure;altitude;pressure_sealevel;temperature;humidity
59154;BME280;44935;48.944;9.418;2024-01-27T00:00:12;100411.86;;;5.31;46.81
59154;BME280;44935;48.944;9.418;2024-01-27T00:02:40;100419.31;;;5.31;46.41
59154;BME280;44935;48.944;9.418;2024-01-27T00:05:07;100422.41;;;4.71;47.72
59154;BME280;44935;48.944;9.418;2024-01-27T00:07:34;100426.99;;;4.53;48.57
59154;BME280;44935;48.944;9.418;2024-01-27T00:10:01;100424.89;;;4.33;48.95
59154;BME280;44935;48.944;9.418;2024-01-27T00:12:28;100428.01;;;3.93;48.92
59154;BME280;44935;48.944;9.418;2024-01-27T00:14:55;100434.66;;;4.18;49.02
59154;BME280;44935;48.944;9.418;2024-01-27T00:17:22;100435.90;;;4.05;48.91
59154;BME280;44935;48.944;9.418;2024-01-27T00:19:49;100440.70;;;4.30;49.09
59154;BME280;44935;48.944;9.418;2024-01-27T00:22:16;100439.50;;;4.01;48.69
59154;BME280;44935;48.944;9.418;2024-01-27T00:24:42;100440.31;;;4.24;48.85
59154;BME280;44935;48.944;9.418;2024-01-27T00:27:10;100440.62;;;3.97;48.98
59154;BME280;44935;48.944;9.418;2024-01-27T00:29:37;100441.37;;;3.95;49.25
59154;BME280;44935;48.944;9.418;2024-01-27T00:32:04;100442.97;;;3.66;49.39
59154;BME280;44935;48.944;9.418;2024-01-27T00:34:32;100447.73;;;3.42;49.44
59154;BME280;44935;48.944;9.418;2024-01-27T00:36:58;100452.44;;;3.26;50.09
59154;BME280;44935;48.944;9.418;2024-01-27T00:39:25;100451.90;;;3.31;50.47
59154;BME280;44935;48.944;9.418;2024-01-27T00:41:53;100445.14;;;3.40;50.27
59154;BME280;44935;48.944;9.418;2024-01-27T00:44:20;100445.79;;;3.57;49.15
59154;BME280;44935;48.944;9.418;2024-01-27T00:46:46;100441.76;;;3.58;49.24
59154;BME280;44935;48.944;9.418;2024-01-27T00:49:13;100444.63;;;3.23;49.51
59154;BME280;44935;48.944;9.418;2024-01-27T00:51:40;100447.37;;;3.40;49.97
59154;BME280;44935;48.944;9.418;2024-01-27T00:54:07;100454.26;;;3.38;49.88
59154;BME280;44935;48.944;9.418;2024-01-27T00:56:34;100455.01;;;3.23;49.96
59154;BME280;44935;48.944;9.418;2024-01-27T00:59:01;100455.11;;;3.32;50.00
59154;BME280;44935;48.944;9.418;2024-01-27T01:01:28;100453.14;;;3.27;49.83
59154;BME280;44935;48.944;9.418;2024-01-27T01:03:55;100454.08;;;3.27;50.06
59154;BME280;44935;48.944;9.418;2024-01-27T01:06:23;100450.80;;;3.20;50.15
59154;BME280;44935;48.944;9.418;2024-01-27T01:08:50;100449.11;;;3.27;50.21
59154;BME280;44935;48.944;9.418;2024-01-27T01:11:17;100451.66;;;3.44;49.55
59154;BME280;44935;48.944;9.418;2024-01-27T01:13:44;100455.93;;;3.41;49.27
59154;BME280;44935;48.944;9.418;2024-01-27T01:16:11;100458.13;;;3.09;49.58
59154;BME280;44935;48.944;9.418;2024-01-27T01:18:38;100461.22;;;3.22;49.76
59154;BME280;44935;48.944;9.418;2024-01-27T01:21:06;100466.51;;;3.25;49.58
59154;BME280;44935;48.944;9.418;2024-01-27T01:23:33;100473.14;;;3.29;49.29
59154;BME280;44935;48.944;9.418;2024-01-27T01:26:00;100473.44;;;3.26;49.24
59154;BME280;44935;48.944;9.418;2024-01-27T01:28:27;100476.87;;;3.25;49.39
59154;BME280;44935;48.944;9.418;2024-01-27T01:30:54;100483.83;;;3.21;48.92
59154;BME280;44935;48.944;9.418;2024-01-27T01:33:21;100480.88;;;4.41;46.56
59154;BME280;44935;48.944;9.418;2024-01-27T01:35:47;100479.82;;;4.90;45.07
59154;BME280;44935;48.944;9.418;2024-01-27T01:38:14;100475.63;;;4.84;45.43
59154;BME280;44935;48.944;9.418;2024-01-27T01:40:41;100475.29;;;4.15;46.60
59154;BME280;44935;48.944;9.418;2024-01-27T01:43:10;100471.78;;;4.19;46.92
59154;BME280;44935;48.944;9.418;2024-01-27T01:45:37;100462.80;;;4.46;46.45
59154;BME280;44935;48.944;9.418;2024-01-27T01:48:05;100468.38;;;4.02;46.98
59154;BME280;44935;48.944;9.418;2024-01-27T01:50:33;100467.59;;;4.34;46.57
59154;BME280;44935;48.944;9.418;2024-01-27T01:53:01;100468.95;;;4.11;46.81
59154;BME280;44935;48.944;9.418;2024-01-27T01:55:28;100473.95;;;3.79;47.22
59154;BME280;44935;48.944;9.418;2024-01-27T01:57:56;100482.08;;;3.82;47.86
59154;BME280;44935;48.944;9.418;2024-01-27T02:00:23;100486.50;;;3.60;48.19
59154;BME280;44935;48.944;9.418;2024-01-27T02:02:49;100490.53;;;3.13;48.87
59154;BME280;44935;48.944;9.418;2024-01-27T02:05:16;100494.97;;;3.87;48.52
59154;BME280;44935;48.944;9.418;2024-01-27T02:07:43;100499.76;;;3.61;48.52
59154;BME280;44935;48.944;9.418;2024-01-27T02:10:13;100498.86;;;4.32;46.95
59154;BME280;44935;48.944;9.418;2024-01-27T02:12:41;100503.76;;;4.45;45.54
59154;BME280;44935;48.944;9.418;2024-01-27T02:15:10;100504.63;;;5.03;45.54
59154;BME280;44935;48.944;9.418;2024-01-27T02:17:37;100507.72;;;4.33;46.42
59154;BME280;44935;48.944;9.418;2024-01-27T02:20:06;100510.19;;;3.31;48.11
59154;BME280;44935;48.944;9.418;2024-01-27T02:22:33;100511.36;;;3.05;49.35
59154;BME280;44935;48.944;9.418;2024-01-27T02:25:00;100513.58;;;2.95;49.48
59154;BME280;44935;48.944;9.418;2024-01-27T02:27:27;100512.67;;;2.75;49.94
59154;BME280;44935;48.944;9.418;2024-01-27T02:29:54;100522.91;;;2.29;50.36
59154;BME280;44935;48.944;9.418;2024-01-27T02:32:21;100530.38;;;2.14;50.77
59154;BME280;44935;48.944;9.418;2024-01-27T02:34:48;100533.91;;;2.77;50.97
59154;BME280;44935;48.944;9.418;2024-01-27T02:37:15;100538.02;;;2.44;50.57
59154;BME280;44935;48.944;9.418;2024-01-27T02:39:42;100543.12;;;2.33;51.51
59154;BME280;44935;48.944;9.418;2024-01-27T02:42:09;100546.58;;;2.34;51.37
59154;BME280;44935;48.944;9.418;2024-01-27T02:44:36;100553.07;;;2.48;51.44
59154;BME280;44935;48.944;9.418;2024-01-27T02:47:03;100553.54;;;2.09;51.42
59154;BME280;44935;48.944;9.418;2024-01-27T02:49:30;100553.29;;;2.28;51.28
59154;BME280;44935;48.944;9.418;2024-01-27T02:51:56;100552.98;;;1.93;51.47
59154;BME280;44935;48.944;9.418;2024-01-27T02:54:23;100553.81;;;2.38;51.64
59154;BME280;44935;48.944;9.418;2024-01-27T02:56:50;100557.98;;;2.59;50.85
59154;BME280;44935;48.944;9.418;2024-01-27T02:59:18;100559.72;;;2.84;50.76
59154;BME280;44935;48.944;9.418;2024-01-27T03:01:45;100560.74;;;2.67;51.35
59154;BME280;44935;48.944;9.418;2024-01-27T03:04:12;100562.65;;;2.30;51.16
59154;BME280;44935;48.944;9.418;2024-01-27T03:06:39;100562.13;;;2.07;52.06
59154;BME280;44935;48.944;9.418;2024-01-27T03:09:06;100557.90;;;2.29;51.82
59154;BME280;44935;48.944;9.418;2024-01-27T03:11:33;100556.64;;;1.80;51.99
59154;BME280;44935;48.944;9.418;2024-01-27T03:14:00;100556.60;;;1.99;51.39
59154;BME280;44935;48.944;9.418;2024-01-27T03:16:27;100554.63;;;2.73;51.27
59154;BME280;44935;48.944;9.418;2024-01-27T03:18:54;100558.11;;;2.34;50.78
59154;BME280;44935;48.944;9.418;2024-01-27T03:21:21;100559.77;;;2.76;50.62
59154;BME280;44935;48.944;9.418;2024-01-27T03:23:48;100558.04;;;2.71;50.53
59154;BME280;44935;48.944;9.418;2024-01-27T03:26:15;100560.75;;;2.39;50.05
59154;BME280;44935;48.944;9.418;2024-01-27T03:28:42;100560.34;;;2.45;50.03
59154;BME280;44935;48.944;9.418;2024-01-27T03:31:09;100562.04;;;2.25;50.07
59154;BME280;44935;48.944;9.418;2024-01-27T03:33:36;100565.11;;;2.01;50.35
59154;BME280;44935;48.944;9.418;2024-01-27T03:36:09;100568.86;;;1.78;50.79
59154;BME280;44935;48.944;9.418;2024-01-27T03:38:36;100573.58;;;1.82;50.78
59154;BME280;44935;48.944;9.418;2024-01-27T03:41:04;100574.11;;;1.88;50.69
59154;BME280;44935;48.944;9.418;2024-01-27T03:43:31;100571.38;;;1.96;50.73
59154;BME280;44935;48.944;9.418;2024-01-27T03:45:58;100573.62;;;1.67;50.90
59154;BME280;44935;48.944;9.418;2024-01-27T03:48:25;100576.22;;;1.70;50.57
59154;BME280;44935;48.944;9.418;2024-01-27T03:50:52;100585.40;;;1.24;50.87
59154;BME280;44935;48.944;9.418;2024-01-27T03:53:19;100581.91;;;1.17;51.34
59154;BME280;44935;48.944;9.418;2024-01-27T03:55:46;100582.08;;;0.91;52.00
59154;BME280;44935;48.944;9.418;2024-01-27T03:58:13;100585.24;;;1.25;51.61
59154;BME280;44935;48.944;9.418;2024-01-27T04:00:40;100591.06;;;1.56;51.12
59154;BME280;44935;48.944;9.418;2024-01-27T04:03:07;100590.20;;;1.53;50.72
59154;BME280;44935;48.944;9.418;2024-01-27T04:05:34;100590.10;;;1.21;50.44
59154;BME280;44935;48.944;9.418;2024-01-27T04:08:01;100589.72;;;1.28;50.74
59154;BME280;44935;48.944;9.418;2024-01-27T04:10:28;100591.97;;;1.51;50.55
59154;BME280;44935;48.944;9.418;2024-01-27T04:12:54;100592.54;;;1.47;50.41
59154;BME280;44935;48.944;9.418;2024-01-27T04:15:21;100592.88;;;0.96;51.12
59154;BME280;44935;48.944;9.418;2024-01-27T04:17:48;100596.00;;;0.77;51.77
59154;BME280;44935;48.944;9.418;2024-01-27T04:20:15;100597.03;;;0.70;51.76
59154;BME280;44935;48.944;9.418;2024-01-27T04:22:42;100597.98;;;0.55;51.75
59154;BME280;44935;48.944;9.418;2024-01-27T04:25:09;100603.22;;;0.73;51.85
59154;BME280;44935;48.944;9.418;2024-01-27T04:27:38;100602.22;;;0.95;51.87
59154;BME280;44935;48.944;9.418;2024-01-27T04:30:06;100599.67;;;1.31;51.11
59154;BME280;44935;48.944;9.418;2024-01-27T04:32:34;100603.01;;;1.68;50.71
59154;BME280;44935;48.944;9.418;2024-01-27T04:35:02;100599.52;;;1.21;49.80
59154;BME280;44935;48.944;9.418;2024-01-27T04:37:30;100597.73;;;1.51;50.22
59154;BME280;44935;48.944;9.418;2024-01-27T04:39:57;100603.24;;;1.53;49.59
59154;BME280;44935;48.944;9.418;2024-01-27T04:42:24;100609.98;;;1.59;49.66
59154;BME280;44935;48.944;9.418;2024-01-27T04:44:51;100620.69;;;1.96;50.02
59154;BME280;44935;48.944;9.418;2024-01-27T04:47:17;100621.78;;;1.51;50.01
59154;BME280;44935;48.944;9.418;2024-01-27T04:49:44;100619.89;;;1.42;49.80
59154;BME280;44935;48.944;9.418;2024-01-27T04:52:11;100620.21;;;1.40;49.89
59154;BME280;44935;48.944;9.418;2024-01-27T04:54:38;100628.06;;;1.84;49.11
59154;BME280;44935;48.944;9.418;2024-01-27T04:57:05;100624.57;;;2.10;48.63
59154;BME280;44935;48.944;9.418;2024-01-27T04:59:32;100620.53;;;1.77;48.82
59154;BME280;44935;48.944;9.418;2024-01-27T05:01:59;100622.81;;;1.59;48.94
59154;BME280;44935;48.944;9.418;2024-01-27T05:04:26;100621.43;;;1.74;49.21
59154;BME280;44935;48.944;9.418;2024-01-27T05:06:53;100621.88;;;1.31;49.30
59154;BME280;44935;48.944;9.418;2024-01-27T05:09:20;100623.12;;;1.52;49.21
59154;BME280;44935;48.944;9.418;2024-01-27T05:11:47;100628.36;;;2.05;48.33
59154;BME280;44935;48.944;9.418;2024-01-27T05:14:15;100622.02;;;2.72;46.35
59154;BME280;44935;48.944;9.418;2024-01-27T05:16:42;100622.78;;;2.01;47.19
59154;BME280;44935;48.944;9.418;2024-01-27T05:19:09;100618.48;;;1.99;47.99
59154;BME280;44935;48.944;9.418;2024-01-27T05:21:37;100621.63;;;1.91;48.23
59154;BME280;44935;48.944;9.418;2024-01-27T05:24:05;100629.40;;;1.96;47.35
59154;BME280;44935;48.944;9.418;2024-01-27T05:26:32;100633.96;;;1.94;48.15
59154;BME280;44935;48.944;9.418;2024-01-27T05:28:59;100636.57;;;1.89;48.26
59154;BME280;44935;48.944;9.418;2024-01-27T05:31:26;100642.32;;;1.87;48.55
59154;BME280;44935;48.944;9.418;2024-01-27T05:33:53;100643.30;;;2.08;47.95
59154;BME280;44935;48.944;9.418;2024-01-27T05:36:20;100641.15;;;2.06;47.95
59154;BME280;44935;48.944;9.418;2024-01-27T05:38:47;100636.04;;;2.27;47.84
59154;BME280;44935;48.944;9.418;2024-01-27T05:41:14;100633.93;;;2.30;47.24
59154;BME280;44935;48.944;9.418;2024-01-27T05:43:41;100634.60;;;2.87;45.89
59154;BME280;44935;48.944;9.418;2024-01-27T05:46:09;100637.29;;;2.59;46.67
59154;BME280;44935;48.944;9.418;2024-01-27T05:48:35;100631.13;;;1.89;47.36
59154;BME280;44935;48.944;9.418;2024-01-27T05:51:03;100634.51;;;2.39;47.08
59154;BME280;44935;48.944;9.418;2024-01-27T05:53:30;100634.63;;;1.86;47.82
59154;BME280;44935;48.944;9.418;2024-01-27T05:55:57;100637.55;;;1.71;48.17
59154;BME280;44935;48.944;9.418;2024-01-27T05:58:24;100637.92;;;1.48;48.47
59154;BME280;44935;48.944;9.418;2024-01-27T06:00:51;100636.79;;;2.05;48.08
59154;BME280;44935;48.944;9.418;2024-01-27T06:03:18;100640.69;;;1.88;48.21
59154;BME280;44935;48.944;9.418;2024-01-27T06:05:45;100645.73;;;2.59;46.82
59154;BME280;44935;48.944;9.418;2024-01-27T06:08:12;100643.63;;;2.63;45.55
59154;BME280;44935;48.944;9.418;2024-01-27T06:10:39;100645.41;;;2.30;46.47
59154;BME280;44935;48.944;9.418;2024-01-27T06:13:06;100641.18;;;2.39;46.42
59154;BME280;44935;48.944;9.418;2024-01-27T06:15:33;100641.67;;;2.49;46.03
59154;BME280;44935;48.944;9.418;2024-01-27T06:18:00;100645.85;;;2.30;46.94
59154;BME280;44935;48.944;9.418;2024-01-27T06:20:27;100643.70;;;2.08;47.11
59154;BME280;44935;48.944;9.418;2024-01-27T06:22:54;100648.34;;;2.15;47.54
59154;BME280;44935;48.944;9.418;2024-01-27T06:25:21;100651.85;;;2.68;45.95
59154;BME280;44935;48.944;9.418;2024-01-27T06:27:48;100654.40;;;2.32;46.25
59154;BME280;44935;48.944;9.418;2024-01-27T06:30:15;100654.78;;;2.43;46.25
59154;BME280;44935;48.944;9.418;2024-01-27T06:32:42;100656.43;;;2.69;45.59
59154;BME280;44935;48.944;9.418;2024-01-27T06:35:09;100651.45;;;2.71;44.84
59154;BME280;44935;48.944;9.418;2024-01-27T06:37:36;100652.34;;;2.26;46.49
59154;BME280;44935;48.944;9.418;2024-01-27T06:40:03;100655.07;;;1.83;46.87
59154;BME280;44935;48.944;9.418;2024-01-27T06:42:31;100655.13;;;1.94;47.35
59154;BME280;44935;48.944;9.418;2024-01-27T06:44:58;100656.59;;;2.22;46.88
59154;BME280;44935;48.944;9.418;2024-01-27T06:47:25;100656.28;;;2.01;46.75
59154;BME280;44935;48.944;9.418;2024-01-27T06:49:52;100662.34;;;2.23;46.39
59154;BME280;44935;48.944;9.418;2024-01-27T06:52:18;100663.73;;;2.39;45.86
59154;BME280;44935;48.944;9.418;2024-01-27T06:54:45;100657.46;;;2.38;46.34
59154;BME280;44935;48.944;9.418;2024-01-27T06:57:20;100655.59;;;1.47;47.74
59154;BME280;44935;48.944;9.418;2024-01-27T06:59:49;100657.84;;;1.55;48.03
59154;BME280;44935;48.944;9.418;2024-01-27T07:02:16;100666.90;;;2.30;46.33
59154;BME280;44935;48.944;9.418;2024-01-27T07:04:43;100664.95;;;3.00;44.51
59154;BME280;44935;48.944;9.418;2024-01-27T07:07:10;100665.91;;;3.30;43.23
59154;BME280;44935;48.944;9.418;2024-01-27T07:09:37;100677.86;;;2.61;45.09
59154;BME280;44935;48.944;9.418;2024-01-27T07:12:04;100672.84;;;1.89;46.86
59154;BME280;44935;48.944;9.418;2024-01-27T07:14:31;100673.75;;;1.70;47.07
59154;BME280;44935;48.944;9.418;2024-01-27T07:16:58;100677.98;;;1.28;47.89
59154;BME280;44935;48.944;9.418;2024-01-27T07:19:25;100686.70;;;1.36;47.80
59154;BME280;44935;48.944;9.418;2024-01-27T07:21:52;100689.89;;;1.26;47.99
59154;BME280;44935;48.944;9.418;2024-01-27T07:24:18;100687.46;;;1.22;48.38
59154;BME280;44935;48.944;9.418;2024-01-27T07:26:45;100685.71;;;0.90;48.77
59154;BME280;44935;48.944;9.418;2024-01-27T07:29:12;100688.50;;;1.04;48.47
59154;BME280;44935;48.944;9.418;2024-01-27T07:31:39;100684.73;;;1.60;48.35
59154;BME280;44935;48.944;9.418;2024-01-27T07:34:06;100681.10;;;1.36;48.38
59154;BME280;44935;48.944;9.418;2024-01-27T07:36:33;100682.13;;;1.60;48.34
59154;BME280;44935;48.944;9.418;2024-01-27T07:39:00;100682.10;;;2.06;46.95
59154;BME280;44935;48.944;9.418;2024-01-27T07:41:27;100679.99;;;2.57;45.87
59154;BME280;44935;48.944;9.418;2024-01-27T07:43:54;100685.66;;;2.24;46.54
59154;BME280;44935;48.944;9.418;2024-01-27T07:46:21;100686.56;;;2.08;46.83
59154;BME280;44935;48.944;9.418;2024-01-27T07:48:48;100687.62;;;1.97;47.06
59154;BME280;44935;48.944;9.418;2024-01-27T07:51:15;100688.64;;;2.11;47.13
59154;BME280;44935;48.944;9.418;2024-01-27T07:53:43;100689.42;;;1.92;48.11
59154;BME280;44935;48.944;9.418;2024-01-27T07:56:10;100689.39;;;1.86;48.18
59154;BME280;44935;48.944;9.418;2024-01-27T07:58:37;100693.26;;;1.63;48.50
59154;BME280;44935;48.944;9.418;2024-01-27T08:01:04;100693.56;;;1.60;48.68
59154;BME280;44935;48.944;9.418;2024-01-27T08:03:30;100691.11;;;1.49;49.24
59154;BME280;44935;48.944;9.418;2024-01-27T08:05:57;100688.27;;;1.71;49.45
59154;BME280;44935;48.944;9.418;2024-01-27T08:08:24;100685.64;;;1.79;49.42
59154;BME280;44935;48.944;9.418;2024-01-27T08:10:51;100685.93;;;2.29;48.40
59154;BME280;44935;48.944;9.418;2024-01-27T08:13:18;100681.39;;;2.07;48.19
59154;BME280;44935;48.944;9.418;2024-01-27T08:15:45;100676.28;;;2.06;49.01
59154;BME280;44935;48.944;9.418;2024-01-27T08:18:12;100678.02;;;2.07;48.38
59154;BME280;44935;48.944;9.418;2024-01-27T08:20:39;100688.05;;;2.28;48.45
59154;BME280;44935;48.944;9.418;2024-01-27T08:23:06;100689.94;;;2.43;48.50
59154;BME280;44935;48.944;9.418;2024-01-27T08:25:33;100694.25;;;-1.18;56.06
59154;BME280;44935;48.944;9.418;2024-01-27T08:27:59;100689.93;;;1.74;50.52
59154;BME280;44935;48.944;9.418;2024-01-27T08:30:26;100689.14;;;2.36;49.28
59154;BME280;44935;48.944;9.418;2024-01-27T08:32:53;100696.94;;;2.71;48.29
59154;BME280;44935;48.944;9.418;2024-01-27T08:35:20;100692.75;;;2.30;49.39
59154;BME280;44935;48.944;9.418;2024-01-27T08:37:47;100686.41;;;3.54;46.83
59154;BME280;44935;48.944;9.418;2024-01-27T08:40:14;100685.76;;;3.08;47.08
59154;BME280;44935;48.944;9.418;2024-01-27T08:42:41;100681.60;;;3.21;47.80
59154;BME280;44935;48.944;9.418;2024-01-27T08:45:08;100678.79;;;3.28;47.19
59154;BME280;44935;48.944;9.418;2024-01-27T08:47:36;100670.31;;;3.59;46.58
59154;BME280;44935;48.944;9.418;2024-01-27T08:50:03;100672.43;;;3.21;46.91
59154;BME280;44935;48.944;9.418;2024-01-27T08:52:30;100672.93;;;3.98;46.83
59154;BME280;44935;48.944;9.418;2024-01-27T08:54:57;100669.58;;;3.93;46.61
59154;BME280;44935;48.944;9.418;2024-01-27T08:57:24;100671.00;;;4.13;46.61
59154;BME280;44935;48.944;9.418;2024-01-27T08:59:51;100665.92;;;3.40;48.00
59154;BME280;44935;48.944;9.418;2024-01-27T09:02:18;100674.45;;;1.49;50.46
59154;BME280;44935;48.944;9.418;2024-01-27T09:04:45;100678.06;;;2.59;49.36
59154;BME280;44935;48.944;9.418;2024-01-27T09:07:12;100670.26;;;2.47;49.70
59154;BME280;44935;48.944;9.418;2024-01-27T09:09:39;100657.49;;;1.27;51.30
59154;BME280;44935;48.944;9.418;2024-01-27T09:12:05;100650.56;;;3.27;49.10
59154;BME280;44935;48.944;9.418;2024-01-27T09:14:32;100648.87;;;3.46;48.36
59154;BME280;44935;48.944;9.418;2024-01-27T09:16:59;100657.84;;;1.89;51.56
59154;BME280;44935;48.944;9.418;2024-01-27T09:19:26;100651.06;;;4.49;47.43
59154;BME280;44935;48.944;9.418;2024-01-27T09:21:53;100653.38;;;3.62;48.37
59154;BME280;44935;48.944;9.418;2024-01-27T09:24:20;100658.77;;;5.00;45.83
59154;BME280;44935;48.944;9.418;2024-01-27T09:26:47;100658.55;;;4.60;46.12
59154;BME280;44935;48.944;9.418;2024-01-27T09:29:14;100655.91;;;5.26;45.02
59154;BME280;44935;48.944;9.418;2024-01-27T09:31:41;100652.36;;;3.88;48.16
59154;BME280;44935;48.944;9.418;2024-01-27T09:34:08;100648.20;;;2.72;50.99
59154;BME280;44935;48.944;9.418;2024-01-27T09:36:35;100651.43;;;4.98;46.48
59154;BME280;44935;48.944;9.418;2024-01-27T09:39:02;100656.08;;;5.46;46.27
59154;BME280;44935;48.944;9.418;2024-01-27T09:41:31;100658.54;;;5.39;45.86
59154;BME280;44935;48.944;9.418;2024-01-27T09:44:00;100660.96;;;6.13;44.53
59154;BME280;44935;48.944;9.418;2024-01-27T09:46:28;100664.96;;;6.46;43.95
59154;BME280;44935;48.944;9.418;2024-01-27T09:48:55;100666.58;;;6.55;43.99
59154;BME280;44935;48.944;9.418;2024-01-27T09:51:22;100663.92;;;6.31;43.97
59154;BME280;44935;48.944;9.418;2024-01-27T09:53:49;100669.25;;;6.66;44.59
59154;BME280;44935;48.944;9.418;2024-01-27T09:56:16;100679.10;;;6.42;44.22
59154;BME280;44935;48.944;9.418;2024-01-27T09:58:43;100683.49;;;6.20;45.72
59154;BME280;44935;48.944;9.418;2024-01-27T10:01:11;100684.79;;;6.04;45.76
59154;BME280;44935;48.944;9.418;2024-01-27T10:03:40;100686.68;;;5.91;46.33
59154;BME280;44935;48.944;9.418;2024-01-27T10:06:09;100689.58;;;5.41;47.65
59154;BME280;44935;48.944;9.418;2024-01-27T10:08:36;100694.57;;;5.32;47.31
59154;BME280;44935;48.944;9.418;2024-01-27T10:11:06;100695.12;;;5.19;48.12
59154;BME280;44935;48.944;9.418;2024-01-27T10:13:33;100695.66;;;5.89;47.38
59154;BME280;44935;48.944;9.418;2024-01-27T10:16:02;100700.68;;;6.29;47.09
59154;BME280;44935;48.944;9.418;2024-01-27T10:18:29;100702.34;;;6.20;46.43
59154;BME280;44935;48.944;9.418;2024-01-27T10:20:57;100703.72;;;6.79;45.84
59154;BME280;44935;48.944;9.418;2024-01-27T10:23:24;100705.05;;;6.81;45.73
59154;BME280;44935;48.944;9.418;2024-01-27T10:25:52;100703.39;;;7.00;45.13
59154;BME280;44935;48.944;9.418;2024-01-27T10:28:19;100700.83;;;7.52;44.20
59154;BME280;44935;48.944;9.418;2024-01-27T10:30:46;100700.85;;;7.52;44.18
59154;BME280;44935;48.944;9.418;2024-01-27T10:33:14;100704.07;;;6.72;45.69
59154;BME280;44935;48.944;9.418;2024-01-27T10:35:41;100698.77;;;6.86;45.93
59154;BME280;44935;48.944;9.418;2024-01-27T10:38:08;100695.95;;;6.98;45.20
59154;BME280;44935;48.944;9.418;2024-01-27T10:40:35;100693.81;;;7.11;44.64
59154;BME280;44935;48.944;9.418;2024-01-27T10:43:05;100691.12;;;7.43;44.21
59154;BME280;44935;48.944;9.418;2024-01-27T10:45:35;100691.75;;;7.06;45.08
59154;BME280;44935;48.944;9.418;2024-01-27T10:48:04;100688.36;;;6.80;45.86
59154;BME280;44935;48.944;9.418;2024-01-27T10:50:35;100676.09;;;7.85;43.88
59154;BME280;44935;48.944;9.418;2024-01-27T10:53:04;100673.44;;;8.53;42.17
59154;BME280;44935;48.944;9.418;2024-01-27T10:55:33;100671.03;;;8.35;42.03
59154;BME280;44935;48.944;9.418;2024-01-27T10:58:01;100670.05;;;8.36;41.74
59154;BME280;44935;48.944;9.418;2024-01-27T11:00:29;100671.35;;;8.51;42.16
59154;BME280;44935;48.944;9.418;2024-01-27T11:02:58;100668.78;;;8.04;42.14
59154;BME280;44935;48.944;9.418;2024-01-27T11:05:27;100665.58;;;7.61;42.78
59154;BME280;44935;48.944;9.418;2024-01-27T11:07:55;100660.76;;;8.03;41.94
59154;BME280;44935;48.944;9.418;2024-01-27T11:10:23;100655.23;;;6.95;44.62
59154;BME280;44935;48.944;9.418;2024-01-27T11:12:51;100649.42;;;3.52;51.71
59154;BME280;44935;48.944;9.418;2024-01-27T11:15:19;100640.42;;;2.98;54.03
59154;BME280;44935;48.944;9.418;2024-01-27T11:17:46;100632.95;;;4.27;50.59
59154;BME280;44935;48.944;9.418;2024-01-27T11:20:13;100630.24;;;3.89;52.21
59154;BME280;44935;48.944;9.418;2024-01-27T11:22:40;100625.38;;;5.12;49.09
59154;BME280;44935;48.944;9.418;2024-01-27T11:25:08;100625.49;;;3.42;52.22
59154;BME280;44935;48.944;9.418;2024-01-27T11:27:34;100622.96;;;3.68;53.68
59154;BME280;44935;48.944;9.418;2024-01-27T11:30:02;100616.98;;;2.98;53.61
59154;BME280;44935;48.944;9.418;2024-01-27T11:32:30;100612.78;;;3.90;51.42
59154;BME280;44935;48.944;9.418;2024-01-27T11:35:00;100606.84;;;4.33;51.37
59154;BME280;44935;48.944;9.418;2024-01-27T11:37:30;100602.78;;;4.50;49.99
59154;BME280;44935;48.944;9.418;2024-01-27T11:40:04;100603.29;;;3.59;51.16
59154;BME280;44935;48.944;9.418;2024-01-27T11:42:31;100603.18;;;4.01;50.01
59154;BME280;44935;48.944;9.418;2024-01-27T11:44:59;100600.21;;;4.15;50.55
59154;BME280;44935;48.944;9.418;2024-01-27T11:47:26;100601.19;;;5.18;47.76
59154;BME280;44935;48.944;9.418;2024-01-27T11:49:54;100598.63;;;4.26;50.58
59154;BME280;44935;48.944;9.418;2024-01-27T11:52:22;100597.97;;;4.22;50.51
59154;BME280;44935;48.944;9.418;2024-01-27T11:54:54;100599.44;;;5.83;48.32
59154;BME280;44935;48.944;9.418;2024-01-27T11:57:21;100595.94;;;4.43;49.07
59154;BME280;44935;48.944;9.418;2024-01-27T11:59:49;100588.51;;;4.65;49.21
59154;BME280;44935;48.944;9.418;2024-01-27T12:02:16;100581.42;;;5.05;47.98
59154;BME280;44935;48.944;9.418;2024-01-27T12:04:44;100575.33;;;4.99;47.76
59154;BME280;44935;48.944;9.418;2024-01-27T12:07:11;100572.97;;;4.37;46.42
59154;BME280;44935;48.944;9.418;2024-01-27T12:09:38;100571.26;;;7.43;43.69
59154;BME280;44935;48.944;9.418;2024-01-27T12:12:06;100570.65;;;7.17;43.90
59154;BME280;44935;48.944;9.418;2024-01-27T12:14:38;100568.41;;;5.86;46.00
59154;BME280;44935;48.944;9.418;2024-01-27T12:17:08;100566.78;;;6.41;44.59
59154;BME280;44935;48.944;9.418;2024-01-27T12:19:35;100562.69;;;6.53;44.08
59154;BME280;44935;48.944;9.418;2024-01-27T12:22:02;100561.41;;;8.69;40.44
59154;BME280;44935;48.944;9.418;2024-01-27T12:24:30;100566.41;;;9.25;39.64
59154;BME280;44935;48.944;9.418;2024-01-27T12:26:56;100563.44;;;8.78;41.38
59154;BME280;44935;48.944;9.418;2024-01-27T12:29:23;100564.44;;;9.05;39.62
59154;BME280;44935;48.944;9.418;2024-01-27T12:31:50;100563.48;;;10.07;38.14
59154;BME280;44935;48.944;9.418;2024-01-27T12:34:18;100561.93;;;9.78;37.14
59154;BME280;44935;48.944;9.418;2024-01-27T12:36:45;100559.04;;;9.02;38.71
59154;BME280;44935;48.944;9.418;2024-01-27T12:39:12;100554.96;;;10.22;37.28
59154;BME280;44935;48.944;9.418;2024-01-27T12:41:39;100547.65;;;9.23;39.76
59154;BME280;44935;48.944;9.418;2024-01-27T12:44:06;100549.56;;;7.51;41.13
59154;BME280;44935;48.944;9.418;2024-01-27T12:46:33;100542.13;;;7.54;40.26
59154;BME280;44935;48.944;9.418;2024-01-27T12:49:00;100549.47;;;6.06;42.67
59154;BME280;44935;48.944;9.418;2024-01-27T12:51:27;100545.00;;;5.98;42.50
59154;BME280;44935;48.944;9.418;2024-01-27T12:53:54;100542.90;;;7.48;39.37
59154;BME280;44935;48.944;9.418;2024-01-27T12:56:21;100540.99;;;6.08;41.29
59154;BME280;44935;48.944;9.418;2024-01-27T12:58:48;100539.39;;;7.19;40.43